Euskara    
Meteorología y climatología de Navarra
Datos de la estación - Meteo Navarra

Estación de Carrascal GN

Altitud 568 m.


Datos desde el 23/02/2021 hasta el 24/02/2021 en horario solar
Los datos son PROVISIONALES

Anterior Página 1 de 1 Siguiente Descargar: Formato para Excel 2000 o superior   Formato csv   Formato para OpenOffice Calc
Fecha Temperatura Humedad relativa Radiación global Insolación Precipitación Vel. viento 10 m Vel. viento 10 m Dir. viento 10 m
°C % W/m² s l/m² m/s km/h °
23/02/2021 0:00 4.3 98 0.0 0 0.0 2.5 8.9 45
23/02/2021 0:10 4.3 99 0.0 0 0.0 1.2 4.1 73
23/02/2021 0:20 4.1 99 0.0 0 0.0 0.7 2.5 74
23/02/2021 0:30 4.2 99 0.0 0 0.0 1.2 4.2 161
23/02/2021 0:40 3.8 98 0.0 0 0.0 1.6 5.8 183
23/02/2021 0:50 3.9 99 0.0 0 0.0 1.9 6.7 212
23/02/2021 1:00 4.3 99 0.0 0 0.0 2.5 8.9 254
23/02/2021 1:10 4.4 99 0.0 0 0.0 3.5 12.5 215
23/02/2021 1:20 5.3 99 0.0 0 0.0 4.6 16.5 208
23/02/2021 1:30 4.9 98 0.0 0 0.0 4.2 15.1 231
23/02/2021 1:40 4.9 99 0.0 0 0.0 4.0 14.5 222
23/02/2021 1:50 5.1 99 0.0 0 0.0 2.8 10.2 219
23/02/2021 2:00 5.1 99 0.0 0 0.0 2.9 10.3 205
23/02/2021 2:10 5.4 99 0.0 0 0.0 2.7 9.6 213
23/02/2021 2:20 5.3 99 0.0 0 0.0 2.8 10.1 220
23/02/2021 2:30 5.5 99 0.0 0 0.0 2.8 10.0 225
23/02/2021 2:40 5.7 99 0.0 0 0.0 2.9 10.3 200
23/02/2021 2:50 5.6 99 0.0 0 0.0 2.8 10.2 203
23/02/2021 3:00 5.6 99 0.0 0 0.0 4.2 15.2 191
23/02/2021 3:10 5.8 99 0.0 0 0.0 4.2 15.0 192
23/02/2021 3:20 6.0 99 0.0 0 0.0 3.5 12.4 196
23/02/2021 3:30 5.8 99 0.0 0 0.0 3.8 13.6 191
23/02/2021 3:40 6.0 99 0.0 0 0.0 4.6 16.4 187
23/02/2021 3:50 5.9 98 0.0 0 0.0 4.5 16.2 194
23/02/2021 4:00 5.9 98 0.0 0 0.0 5.2 18.7 201
23/02/2021 4:10 5.9 98 0.0 0 0.0 5.4 19.4 201
23/02/2021 4:20 5.8 97 0.0 0 0.0 5.1 18.3 202
23/02/2021 4:30 5.8 97 0.0 0 0.0 4.9 17.7 201
23/02/2021 4:40 5.8 97 0.0 0 0.0 5.1 18.4 190
23/02/2021 4:50 5.9 97 0.0 0 0.0 4.6 16.7 185
23/02/2021 5:00 5.8 97 0.0 0 0.0 4.8 17.4 185
23/02/2021 5:10 6.0 97 0.0 0 0.0 5.3 19.2 185
23/02/2021 5:20 6.1 96 0.0 0 0.0 5.1 18.5 177
23/02/2021 5:30 6.2 95 0.0 0 0.0 4.9 17.5 187
23/02/2021 5:40 6.3 94 0.0 0 0.0 5.0 17.8 186
23/02/2021 5:50 6.2 94 0.0 0 0.0 4.7 16.8 187
23/02/2021 6:00 6.3 93 0.0 0 0.0 4.5 16.2 187
23/02/2021 6:10 6.4 92 0.0 0 0.0 4.0 14.3 179
23/02/2021 6:20 6.3 91 0.0 0 0.0 3.2 11.6 181
23/02/2021 6:30 6.4 92 0.0 0 0.0 3.6 13.0 197
23/02/2021 6:40 6.3 92 0.0 0 0.0 3.9 13.9 197
23/02/2021 6:50 6.4 92 0.0 0 0.0 4.3 15.3 196
23/02/2021 7:00 6.2 91 0.0 0 0.0 4.1 14.9 194
23/02/2021 7:10 6.2 92 0.0 0 0.0 3.6 13.0 175
23/02/2021 7:20 6.4 91 1.0 0 0.0 3.5 12.4 177
23/02/2021 7:30 6.7 90 25.6 0 0.0 3.8 13.8 174
23/02/2021 7:40 6.7 89 32.2 0 0.0 4.8 17.1 188
23/02/2021 7:50 6.6 90 38.6 0 0.0 4.5 16.2 193
23/02/2021 8:00 6.7 90 52.1 0 0.0 5.5 19.8 185
23/02/2021 8:10 6.8 90 70.7 0 0.0 5.9 21.2 182
23/02/2021 8:20 7.0 89 90.2 0 0.0 6.3 22.7 181
23/02/2021 8:30 7.1 88 103.7 0 0.0 6.5 23.3 178
23/02/2021 8:40 7.1 87 116.9 0 0.0 7.7 27.8 178
23/02/2021 8:50 7.3 87 120.7 0 0.0 7.1 25.5 175
23/02/2021 9:00 7.3 88 133.5 0 0.0 5.3 19.0 170
23/02/2021 9:10 7.6 87 162.8 0 0.0 6.3 22.7 174
23/02/2021 9:20 7.8 85 189.7 0 0.0 7.4 26.6 175
23/02/2021 9:30 8.0 85 202.6 0 0.0 6.9 24.9 178
23/02/2021 9:40 8.1 84 203.9 0 0.0 8.0 28.9 175
23/02/2021 9:50 8.4 86 225.9 172 0.0 4.8 17.2 162
23/02/2021 10:00 8.7 84 318.8 502 0.0 6.1 22.1 168
23/02/2021 10:10 9.2 82 396.6 408 0.0 7.8 28.1 173
23/02/2021 10:20 9.2 81 341.8 312 0.0 7.2 25.7 168
23/02/2021 10:30 9.9 80 473.0 484 0.0 6.8 24.6 169
23/02/2021 10:40 9.8 79 440.0 402 0.0 9.1 32.8 173
23/02/2021 10:50 10.4 78 588.1 574 0.0 9.0 32.3 173
23/02/2021 11:00 10.9 75 635.7 594 0.0 9.4 33.7 171
23/02/2021 11:10 11.0 74 550.3 502 0.0 7.9 28.5 167
23/02/2021 11:20 11.7 72 665.0 600 0.0 8.6 30.9 169
23/02/2021 11:30 11.9 71 668.6 600 0.0 9.1 32.8 175
23/02/2021 11:40 11.8 72 589.4 496 0.0 6.8 24.6 163
23/02/2021 11:50 12.6 69 674.4 566 0.0 7.6 27.4 168
23/02/2021 12:00 12.7 68 682.5 600 0.0 9.6 34.4 171
23/02/2021 12:10 12.5 68 517.2 444 0.0 8.2 29.3 164
23/02/2021 12:20 12.7 68 673.6 592 0.0 8.9 32.1 165
23/02/2021 12:30 12.6 67 632.4 542 0.0 8.8 31.7 167
23/02/2021 12:40 13.1 66 674.2 582 0.0 9.4 33.9 171
23/02/2021 12:50 13.2 65 680.4 600 0.0 10.1 36.2 169
23/02/2021 13:00 13.5 64 674.8 596 0.0 7.7 27.8 164
23/02/2021 13:10 13.9 63 669.0 600 0.0 9.7 34.9 171
23/02/2021 13:20 13.6 63 634.0 550 0.0 9.6 34.4 165
23/02/2021 13:30 13.8 63 615.4 546 0.0 7.8 28.0 155
23/02/2021 13:40 14.3 61 618.2 578 0.0 8.2 29.6 149
23/02/2021 13:50 14.0 61 615.8 592 0.0 9.1 32.8 148
23/02/2021 14:00 14.0 61 547.4 526 0.0 9.0 32.4 154
23/02/2021 14:10 13.7 61 556.5 554 0.0 10.8 38.8 150
23/02/2021 14:20 13.8 62 556.7 598 0.0 7.8 28.0 150
23/02/2021 14:30 14.5 60 546.4 600 0.0 7.1 25.7 154
23/02/2021 14:40 14.4 59 525.2 600 0.0 9.0 32.3 145
23/02/2021 14:50 14.1 60 526.7 600 0.0 9.9 35.5 148
23/02/2021 15:00 13.8 60 498.1 600 0.0 11.4 40.9 146
23/02/2021 15:10 13.5 61 430.0 592 0.0 10.8 39.0 145
23/02/2021 15:20 13.6 61 412.6 594 0.0 9.7 35.1 144
23/02/2021 15:30 13.8 61 321.4 474 0.0 8.4 30.2 159
23/02/2021 15:40 13.4 61 322.9 498 0.0 9.6 34.7 151
23/02/2021 15:50 13.2 62 261.0 442 0.0 10.9 39.3 150
23/02/2021 16:00 13.1 63 282.7 570 0.0 8.8 31.8 150
23/02/2021 16:10 13.2 60 255.1 566 0.0 10.0 35.9 147
23/02/2021 16:20 13.0 61 198.7 472 0.0 9.9 35.7 145
23/02/2021 16:30 13.0 63 208.1 600 0.0 8.4 30.3 150
23/02/2021 16:40 13.0 64 177.6 600 0.0 8.4 30.3 149
23/02/2021 16:50 13.1 64 147.2 600 0.0 6.0 21.6 154
23/02/2021 17:00 12.9 64 117.3 600 0.0 7.3 26.2 152
23/02/2021 17:10 12.5 65 89.2 600 0.0 6.3 22.6 156
23/02/2021 17:20 12.3 68 68.3 600 0.0 5.0 18.1 166
23/02/2021 17:30 12.0 68 46.9 600 0.0 6.0 21.4 157
23/02/2021 17:40 11.6 69 29.9 304 0.0 5.5 19.7 160
23/02/2021 17:50 11.4 70 3.7 0 0.0 6.2 22.2 158
23/02/2021 18:00 11.0 72 0.0 0 0.0 4.8 17.2 162
23/02/2021 18:10 10.7 72 0.0 0 0.0 5.6 20.3 158
23/02/2021 18:20 10.8 71 0.0 0 0.0 7.3 26.1 155
23/02/2021 18:30 10.8 72 0.0 0 0.0 6.2 22.2 163
23/02/2021 18:40 10.3 75 0.0 0 0.0 5.9 21.1 169
23/02/2021 18:50 10.7 75 0.0 0 0.0 8.5 30.7 159
23/02/2021 19:00 10.9 74 0.0 0 0.0 8.3 29.8 157
23/02/2021 19:10 11.1 73 0.0 0 0.0 7.9 28.4 157
23/02/2021 19:20 10.7 73 0.0 0 0.0 5.9 21.1 161
23/02/2021 19:30 10.5 74 0.0 0 0.0 6.5 23.4 156
23/02/2021 19:40 10.6 73 0.0 0 0.0 6.9 24.9 154
23/02/2021 19:50 10.4 74 0.0 0 0.0 5.0 18.0 168
23/02/2021 20:00 9.8 78 0.0 0 0.0 5.9 21.2 173
23/02/2021 20:10 9.5 79 0.0 0 0.0 5.5 19.7 176
23/02/2021 20:20 9.5 79 0.0 0 0.0 5.9 21.1 175
23/02/2021 20:30 9.3 80 0.0 0 0.0 5.4 19.5 174
23/02/2021 20:40 9.3 79 0.0 0 0.0 5.6 20.1 176
23/02/2021 20:50 9.3 79 0.0 0 0.0 5.9 21.1 180
23/02/2021 21:00 9.5 78 0.0 0 0.0 5.9 21.3 179
23/02/2021 21:10 9.5 78 0.0 0 0.0 5.6 20.1 179
23/02/2021 21:20 9.5 79 0.0 0 0.0 5.7 20.5 182
23/02/2021 21:30 9.5 79 0.0 0 0.0 5.0 18.1 179
23/02/2021 21:40 9.4 79 0.0 0 0.0 4.6 16.7 171
23/02/2021 21:50 9.8 78 0.0 0 0.0 5.9 21.1 159
23/02/2021 22:00 10.0 76 0.0 0 0.0 8.9 32.0 147
23/02/2021 22:10 10.3 74 0.0 0 0.0 9.1 32.9 148
23/02/2021 22:20 10.3 74 0.0 0 0.0 8.0 28.9 151
23/02/2021 22:30 10.2 75 0.0 0 0.0 6.5 23.5 161
23/02/2021 22:40 9.8 77 0.0 0 0.0 5.3 19.2 162
23/02/2021 22:50 9.6 78 0.0 0 0.0 5.4 19.4 167
23/02/2021 23:00 9.4 79 0.0 0 0.0 5.5 19.8 160
23/02/2021 23:10 9.6 79 0.0 0 0.0 5.4 19.5 162
23/02/2021 23:20 9.6 80 0.0 0 0.0 5.5 19.8 170
23/02/2021 23:30 9.4 80 0.0 0 0.0 4.9 17.7 175
23/02/2021 23:40 9.4 82 0.0 0 0.0 5.3 19.1 165
23/02/2021 23:50 10.0 80 0.0 0 0.0 7.4 26.6 157
Anterior Página 1 de 1 Siguiente

NOTA: Tipo de datos según el color:
   - Valores diarios o 10 minutos correctos
   - Valores diarios calculados a partir de un número de datos 10 minutos menor que 144 y mayor que 120, o de un número de datos semihorarios menor que 48 y mayor que 40 (caso de las estaciones de INTIA Y Ministerio)
   - Valores diez minutos estimados


Contacto        Enlaces        Aviso legal